createdAt,value
2019-06-20T00:01:21.957Z,13.70
2019-06-20T00:03:52.172Z,10.10
2019-06-20T00:06:22.191Z,10.97
2019-06-20T00:08:52.316Z,10.53
2019-06-20T00:11:22.429Z,9.73
2019-06-20T00:13:52.551Z,10.80
2019-06-20T00:16:22.669Z,9.43
2019-06-20T00:18:52.788Z,9.40
2019-06-20T00:21:22.906Z,8.53
2019-06-20T00:23:52.723Z,9.97
2019-06-20T00:26:22.734Z,14.60
2019-06-20T00:28:52.654Z,10.60
2019-06-20T00:31:22.780Z,10.10
2019-06-20T00:33:52.686Z,9.27
2019-06-20T00:36:22.599Z,9.60
2019-06-20T00:38:52.513Z,10.20
2019-06-20T00:41:22.633Z,9.63
2019-06-20T00:43:52.752Z,11.03
2019-06-20T00:46:22.976Z,8.50
2019-06-20T00:48:52.992Z,9.10
2019-06-20T00:51:23.112Z,9.23
2019-06-20T00:53:53.024Z,9.43
2019-06-20T00:56:23.144Z,9.40
2019-06-20T00:58:53.270Z,9.87
2019-06-20T01:01:23.382Z,8.80
2019-06-20T01:03:53.713Z,9.50
2019-06-20T01:06:23.825Z,8.20
2019-06-20T01:08:53.949Z,8.20
2019-06-20T01:11:24.063Z,9.73
2019-06-20T01:13:54.185Z,9.30
2019-06-20T01:16:24.100Z,8.80
2019-06-20T01:18:54.217Z,8.57
2019-06-20T01:21:24.338Z,8.30
2019-06-20T01:23:54.458Z,7.67
2019-06-20T01:26:24.600Z,6.57
2019-06-20T01:28:54.694Z,7.43
2019-06-20T01:31:25.019Z,9.17
2019-06-20T01:33:54.940Z,7.13
2019-06-20T01:36:25.053Z,7.07
2019-06-20T01:38:55.173Z,6.50
2019-06-20T01:41:25.293Z,7.17
2019-06-20T01:43:55.615Z,7.77
2019-06-20T01:46:25.759Z,8.83
2019-06-20T01:48:55.873Z,11.00
2019-06-20T01:51:25.977Z,7.97
2019-06-20T01:53:56.298Z,9.03
2019-06-20T01:56:26.420Z,8.13
2019-06-20T01:58:56.535Z,7.10
2019-06-20T02:01:26.861Z,8.57
2019-06-20T02:03:56.979Z,6.73
2019-06-20T02:06:27.201Z,6.93
2019-06-20T02:08:57.219Z,6.20
2019-06-20T02:11:27.337Z,6.80
2019-06-20T02:14:06.849Z,7.87
2019-06-20T02:16:29.009Z,6.77
2019-06-20T02:18:59.342Z,9.47
2019-06-20T02:21:29.458Z,6.63
2019-06-20T02:23:59.571Z,5.27
2019-06-20T02:26:29.693Z,5.40
2019-06-20T02:28:59.812Z,8.80
2019-06-20T02:31:30.137Z,7.30
2019-06-20T02:34:00.256Z,6.87
2019-06-20T02:36:30.375Z,7.43
2019-06-20T02:39:00.509Z,5.77
2019-06-20T02:41:30.620Z,6.23
2019-06-20T02:44:00.939Z,5.80
2019-06-20T02:46:31.058Z,6.63
2019-06-20T02:49:01.176Z,6.30
2019-06-20T02:51:31.511Z,6.50
2019-06-20T02:54:02.026Z,6.60
2019-06-20T02:56:32.146Z,8.97
2019-06-20T02:59:02.064Z,7.10
2019-06-20T03:01:32.184Z,7.50
2019-06-20T03:04:02.094Z,8.37
2019-06-20T03:06:32.421Z,6.40
2019-06-20T03:09:02.337Z,6.30
2019-06-20T03:11:32.355Z,7.90
2019-06-20T03:14:02.573Z,7.57
2019-06-20T03:16:32.692Z,10.10
2019-06-20T03:19:02.613Z,7.17
2019-06-20T03:21:32.827Z,7.93
2019-06-20T03:24:03.053Z,6.30
2019-06-20T03:26:33.168Z,7.97
2019-06-20T03:29:03.287Z,7.80
2019-06-20T03:31:33.420Z,9.40
2019-06-20T03:34:03.648Z,7.47
2019-06-20T03:36:33.650Z,8.37
2019-06-20T03:39:04.698Z,8.97
2019-06-20T03:41:34.908Z,6.80
2019-06-20T03:44:05.027Z,5.57
2019-06-20T03:46:35.153Z,6.17
2019-06-20T03:49:05.471Z,6.77
2019-06-20T03:51:35.385Z,5.60
2019-06-20T03:54:05.709Z,7.17
2019-06-20T03:56:35.625Z,6.37
2019-06-20T03:59:05.746Z,6.77
2019-06-20T04:01:35.870Z,8.03
2019-06-20T04:04:06.191Z,5.63
2019-06-20T04:06:36.126Z,6.43
2019-06-20T04:09:06.939Z,6.53
2019-06-20T04:11:36.956Z,6.07
2019-06-20T04:14:07.076Z,5.80
2019-06-20T04:16:37.194Z,6.40
2019-06-20T04:19:07.314Z,6.50
2019-06-20T04:21:37.437Z,8.17
2019-06-20T04:24:07.348Z,5.73
2019-06-20T04:26:37.464Z,5.63
2019-06-20T04:29:07.994Z,6.20
2019-06-20T04:31:38.317Z,6.37
2019-06-20T04:34:08.443Z,6.33
2019-06-20T04:36:38.966Z,5.87
2019-06-20T04:39:18.780Z,8.57
2019-06-20T04:41:40.640Z,6.17
2019-06-20T04:44:10.759Z,8.00
2019-06-20T04:46:45.180Z,7.03
2019-06-20T04:49:15.299Z,7.50
2019-06-20T04:51:45.418Z,10.13
2019-06-20T04:54:15.539Z,6.47
2019-06-20T04:56:45.458Z,7.50
2019-06-20T04:59:15.368Z,8.67
2019-06-20T05:01:45.492Z,7.33
2019-06-20T05:04:15.608Z,9.83
2019-06-20T05:06:48.580Z,7.57
2019-06-20T05:09:18.709Z,13.30
2019-06-20T05:11:48.834Z,9.23
2019-06-20T05:14:18.962Z,14.90
2019-06-20T05:16:50.544Z,14.20
2019-06-20T05:19:20.622Z,13.27
2019-06-20T05:21:50.753Z,15.10
2019-06-20T05:24:20.858Z,14.47
2019-06-20T05:26:50.985Z,12.70
2019-06-20T05:29:21.098Z,12.77
2019-06-20T05:31:51.219Z,16.27
2019-06-20T05:34:21.339Z,12.57
2019-06-20T05:36:51.456Z,15.17
2019-06-20T05:39:21.574Z,12.13
2019-06-20T05:41:51.490Z,12.73
2019-06-20T05:44:22.433Z,12.20
2019-06-20T05:46:52.547Z,12.33
2019-06-20T05:49:22.394Z,12.17
2019-06-20T05:51:53.628Z,13.50
2019-06-20T05:54:23.507Z,15.50
2019-06-20T05:56:53.548Z,15.30
2019-06-20T05:59:23.659Z,12.43
2019-06-20T06:01:56.256Z,13.73
2019-06-20T06:04:25.456Z,17.70
2019-06-20T06:06:55.549Z,12.43
2019-06-20T06:09:25.480Z,13.50
2019-06-20T06:15:44.345Z,10.40
2019-06-20T06:18:14.472Z,10.50
2019-06-20T06:20:45.026Z,11.87
2019-06-20T06:23:17.719Z,16.33
2019-06-20T06:25:48.312Z,10.03
2019-06-20T06:28:18.443Z,13.43
2019-06-20T06:30:48.544Z,8.53
2019-06-20T06:33:18.595Z,10.40
2019-06-20T06:35:48.788Z,10.40
2019-06-20T06:38:22.077Z,10.53
2019-06-20T06:40:50.453Z,11.50
2019-06-20T06:43:20.580Z,14.27
2019-06-20T06:45:50.693Z,15.30
2019-06-20T06:48:20.815Z,10.47
2019-06-20T06:50:50.931Z,12.40
2019-06-20T06:53:21.050Z,15.10
2019-06-20T06:55:50.987Z,16.37
2019-06-20T06:58:21.083Z,18.80
2019-06-20T07:00:50.996Z,12.13
2019-06-20T07:03:21.118Z,15.30
2019-06-20T07:05:51.240Z,12.90
2019-06-20T07:08:21.156Z,13.90
2019-06-20T07:10:51.277Z,13.60
2019-06-20T07:13:21.391Z,12.57
2019-06-20T07:15:51.515Z,14.70
2019-06-20T07:18:21.666Z,12.80
2019-06-20T07:20:51.958Z,10.33
2019-06-20T07:23:22.278Z,10.77
2019-06-20T07:25:52.309Z,9.53
2019-06-20T07:28:22.517Z,18.27
2019-06-20T07:30:52.437Z,10.07
2019-06-20T07:33:22.556Z,9.43
2019-06-20T07:35:52.670Z,16.27
2019-06-20T07:38:22.788Z,14.03
2019-06-20T07:40:52.707Z,11.67
2019-06-20T07:43:22.822Z,15.03
2019-06-20T07:46:02.518Z,10.63
2019-06-20T07:48:24.493Z,12.67
2019-06-20T07:50:54.627Z,18.27
2019-06-20T07:53:24.738Z,13.43
2019-06-20T07:55:54.652Z,14.53
2019-06-20T07:58:24.780Z,11.53
2019-06-20T08:00:55.088Z,13.20
2019-06-20T08:03:25.215Z,17.70
2019-06-20T08:05:55.539Z,14.83
2019-06-20T08:08:25.656Z,15.60
2019-06-20T08:10:55.669Z,12.93
2019-06-20T08:13:25.789Z,15.77
2019-06-20T08:15:55.910Z,12.77
2019-06-20T08:18:26.039Z,13.43
2019-06-20T08:20:56.146Z,18.03
2019-06-20T08:23:26.269Z,14.07
2019-06-20T08:25:57.488Z,15.53
2019-06-20T08:28:28.163Z,16.73
2019-06-20T08:30:58.982Z,19.97
2019-06-20T08:33:29.611Z,21.63
2019-06-20T08:36:00.506Z,22.00
2019-06-20T08:38:30.876Z,18.23
2019-06-20T08:41:01.977Z,24.60
2019-06-20T08:43:32.445Z,18.70
2019-06-20T08:46:04.076Z,29.37
2019-06-20T08:48:34.422Z,20.70
2019-06-20T08:51:04.614Z,29.97
2019-06-20T08:53:37.539Z,19.67
2019-06-20T08:56:07.653Z,28.53
2019-06-20T08:58:37.766Z,22.80
2019-06-20T09:03:37.803Z,28.90
2019-06-20T09:06:07.920Z,32.00
2019-06-20T09:08:38.037Z,26.30
2019-06-20T09:11:08.166Z,28.10
2019-06-20T09:13:40.518Z,28.57
2019-06-20T09:16:23.852Z,30.67
2019-06-20T09:18:41.792Z,31.60
2019-06-20T09:21:11.911Z,28.50
2019-06-20T09:23:42.031Z,27.77
2019-06-20T09:26:12.372Z,28.03
2019-06-20T09:28:42.477Z,24.40
2019-06-20T09:31:12.593Z,30.53
2019-06-20T09:33:42.719Z,29.03
2019-06-20T09:36:12.832Z,26.87
2019-06-20T09:38:42.952Z,23.37
2019-06-20T09:41:13.070Z,25.37
2019-06-20T09:43:43.393Z,30.33
2019-06-20T09:46:13.321Z,24.63
2019-06-20T09:48:43.430Z,22.53
2019-06-20T09:51:13.548Z,25.70
2019-06-20T09:53:43.667Z,24.57
2019-06-20T09:56:16.056Z,26.43
2019-06-20T09:58:46.915Z,23.20
2019-06-20T10:01:17.710Z,25.93
2019-06-20T10:03:49.006Z,23.97
2019-06-20T10:06:20.004Z,24.93
2019-06-20T10:08:50.143Z,29.20
2019-06-20T10:11:20.236Z,25.50
2019-06-20T10:13:50.356Z,26.27
2019-06-20T10:16:20.278Z,25.60
2019-06-20T10:18:50.391Z,28.90
2019-06-20T10:21:20.509Z,24.83
2019-06-20T10:23:51.855Z,25.13
2019-06-20T10:26:22.206Z,24.37
2019-06-20T10:28:53.102Z,21.20
2019-06-20T10:31:23.446Z,24.10
2019-06-20T10:33:53.566Z,26.67
2019-06-20T10:36:23.680Z,28.07
2019-06-20T10:38:54.016Z,25.57
2019-06-20T10:41:24.126Z,24.50
2019-06-20T10:43:54.040Z,25.67
2019-06-20T10:46:24.275Z,21.17
2019-06-20T10:48:54.280Z,23.90
2019-06-20T10:51:45.833Z,20.50
2019-06-20T10:54:16.035Z,22.03
2019-06-20T10:56:47.101Z,19.47
2019-06-20T10:59:17.490Z,20.10
2019-06-20T11:01:48.372Z,17.80
2019-06-20T11:04:18.558Z,21.57
2019-06-20T11:06:49.563Z,20.30
2019-06-20T11:09:19.920Z,18.93
2019-06-20T11:11:49.927Z,18.47
2019-06-20T11:14:20.053Z,17.43
2019-06-20T11:16:50.169Z,15.70
2019-06-20T11:19:20.284Z,12.47
2019-06-20T11:21:50.408Z,18.20
2019-06-20T11:24:20.419Z,16.87
2019-06-20T11:26:50.444Z,10.90
2019-06-20T11:29:20.563Z,16.30
2019-06-20T11:31:50.682Z,12.13
2019-06-20T11:34:20.797Z,13.37
2019-06-20T11:36:50.917Z,12.27
2019-06-20T11:39:20.841Z,13.70
2019-06-20T11:41:50.745Z,10.93
2019-06-20T11:44:21.069Z,15.17
2019-06-20T11:46:51.193Z,11.90
2019-06-20T11:49:21.316Z,9.60
2019-06-20T11:51:51.426Z,13.40
2019-06-20T11:54:21.550Z,10.97
2019-06-20T11:56:51.666Z,9.67
2019-06-20T11:59:21.787Z,8.93
2019-06-20T12:01:51.905Z,8.63
2019-06-20T12:04:22.029Z,8.40
2019-06-20T12:06:52.143Z,11.60
2019-06-20T12:09:22.328Z,9.43
2019-06-20T12:11:52.381Z,13.40
2019-06-20T12:14:22.508Z,9.27
2019-06-20T12:16:52.625Z,10.43
2019-06-20T12:19:22.742Z,10.10
2019-06-20T12:21:52.687Z,10.20
2019-06-20T12:24:22.773Z,12.67
2019-06-20T12:26:52.893Z,8.00
2019-06-20T12:29:23.010Z,8.10
2019-06-20T12:31:53.138Z,7.27
2019-06-20T12:34:23.312Z,6.80
2019-06-20T12:36:53.578Z,7.03
2019-06-20T12:39:23.488Z,5.90
2019-06-20T12:41:55.245Z,9.03
2019-06-20T12:44:25.374Z,7.43
2019-06-20T12:46:55.489Z,8.03
2019-06-20T12:49:25.604Z,7.17
2019-06-20T12:51:55.727Z,9.80
2019-06-20T12:54:25.844Z,9.50
2019-06-20T12:56:55.898Z,8.13
2019-06-20T12:59:27.105Z,7.80
2019-06-20T13:01:57.226Z,7.53
2019-06-20T13:04:27.343Z,8.77
2019-06-20T13:06:57.469Z,10.40
2019-06-20T13:09:27.584Z,7.30
2019-06-20T13:11:57.911Z,8.83
2019-06-20T13:14:28.026Z,6.87
2019-06-20T13:16:58.350Z,7.07
2019-06-20T13:19:28.481Z,9.63
2019-06-20T13:21:58.590Z,6.20
2019-06-20T13:24:28.707Z,6.47
2019-06-20T13:26:58.839Z,11.30
2019-06-20T13:29:28.757Z,91.80
2019-06-20T13:32:04.358Z,65.20
2019-06-20T13:34:31.027Z,84.80
2019-06-20T13:37:00.956Z,62.90
2019-06-20T13:39:31.077Z,43.10
2019-06-20T13:42:01.192Z,45.77
2019-06-20T13:44:31.300Z,46.67
2019-06-20T13:47:01.222Z,38.23
2019-06-20T13:49:31.335Z,21.97
2019-06-20T13:52:01.453Z,19.57
2019-06-20T13:54:31.574Z,19.90
2019-06-20T13:57:01.699Z,22.07
2019-06-20T13:59:33.511Z,17.67
2019-06-20T14:02:07.025Z,14.03
2019-06-20T14:04:35.330Z,18.63
2019-06-20T14:07:05.446Z,26.40
2019-06-20T14:09:38.839Z,13.30
2019-06-20T14:12:08.963Z,13.47
2019-06-20T14:14:39.088Z,12.17
2019-06-20T14:17:09.198Z,9.90
2019-06-20T14:19:39.116Z,9.00
2019-06-20T14:22:09.235Z,26.37
2019-06-20T14:24:39.351Z,21.90
2019-06-20T14:27:09.479Z,24.70
2019-06-20T14:29:39.747Z,18.53
2019-06-20T14:32:21.773Z,13.33
2019-06-20T14:34:42.767Z,14.10
2019-06-20T14:37:13.441Z,13.50
2019-06-20T14:39:44.871Z,13.00
2019-06-20T14:42:15.105Z,14.10
2019-06-20T14:44:45.987Z,11.73
2019-06-20T14:47:16.843Z,12.77
2019-06-20T14:49:48.293Z,8.43
2019-06-20T14:52:18.651Z,11.13
2019-06-20T14:54:49.832Z,9.70
2019-06-20T14:57:20.327Z,6.93
2019-06-20T14:59:50.447Z,8.90
2019-06-20T15:02:20.563Z,7.40
2019-06-20T15:04:52.512Z,7.60
2019-06-20T15:07:22.857Z,6.77
2019-06-20T15:09:53.262Z,6.93
2019-06-20T15:12:23.506Z,7.50
2019-06-20T15:14:53.619Z,4.90
2019-06-20T15:17:23.739Z,5.53
2019-06-20T15:19:54.369Z,6.73
2019-06-20T15:22:24.813Z,5.07
2019-06-20T15:24:55.702Z,6.60
2019-06-20T15:27:26.479Z,6.23
2019-06-20T15:29:56.593Z,6.30
2019-06-20T15:32:26.710Z,5.03
2019-06-20T15:34:57.264Z,5.57
2019-06-20T15:37:29.029Z,4.90
2019-06-20T15:39:59.670Z,4.57
2019-06-20T15:42:29.725Z,5.63
2019-06-20T15:45:01.396Z,4.80
2019-06-20T15:47:31.516Z,4.23
2019-06-20T15:50:01.875Z,4.27
2019-06-20T15:52:31.764Z,4.40
2019-06-20T15:55:01.877Z,3.57
2019-06-20T15:57:31.996Z,4.20
2019-06-20T16:00:02.125Z,5.20
2019-06-20T16:02:32.231Z,5.03
2019-06-20T16:05:02.467Z,4.60
2019-06-20T16:07:32.885Z,3.90
2019-06-20T16:10:03.001Z,4.00
2019-06-20T16:12:33.325Z,4.27
2019-06-20T16:15:04.265Z,3.67
2019-06-20T16:17:34.183Z,4.33
2019-06-20T16:20:05.940Z,3.70
2019-06-20T16:22:36.058Z,3.63
2019-06-20T16:25:07.810Z,4.23
2019-06-20T16:27:38.138Z,3.43
2019-06-20T16:30:09.897Z,4.43
2019-06-20T16:32:40.013Z,4.20
2019-06-20T16:35:10.417Z,3.97
2019-06-20T16:37:40.458Z,4.00
2019-06-20T16:40:13.329Z,4.03
2019-06-20T16:42:43.358Z,4.17
2019-06-20T16:45:13.788Z,4.67
2019-06-20T16:47:43.809Z,4.73
2019-06-20T16:50:14.127Z,5.93
2019-06-20T16:52:44.246Z,5.73
2019-06-20T16:55:14.363Z,7.90
2019-06-20T16:57:44.621Z,3.90
2019-06-20T17:00:17.679Z,8.20
2019-06-20T17:02:47.793Z,4.03
2019-06-20T17:05:18.226Z,3.63
2019-06-20T17:07:48.453Z,4.13
2019-06-20T17:10:20.219Z,5.20
2019-06-20T17:12:50.934Z,3.60
2019-06-20T17:15:21.359Z,3.27
2019-06-20T17:17:51.586Z,5.07
2019-06-20T17:20:22.110Z,4.43
2019-06-20T17:22:52.433Z,8.63
2019-06-20T17:25:22.761Z,4.40
2019-06-20T17:27:53.920Z,4.70
2019-06-20T17:30:24.106Z,4.13
2019-06-20T17:32:54.149Z,4.43
2019-06-20T17:35:24.468Z,3.40
2019-06-20T17:37:54.584Z,4.10
2019-06-20T17:40:25.372Z,4.53
2019-06-20T17:42:55.644Z,8.47
2019-06-20T17:45:25.844Z,4.00
2019-06-20T17:47:56.494Z,3.97
2019-06-20T17:50:26.818Z,3.80
2019-06-20T17:52:57.142Z,5.10
2019-06-20T17:55:27.680Z,4.10
2019-06-20T17:57:59.383Z,3.87
2019-06-20T18:00:30.186Z,3.97
2019-06-20T18:03:00.503Z,3.90
2019-06-20T18:05:32.476Z,3.63
2019-06-20T18:08:15.047Z,4.20
2019-06-20T18:10:38.231Z,4.13
2019-06-20T18:13:10.391Z,3.90
2019-06-20T18:15:40.506Z,7.90
2019-06-20T18:18:11.369Z,5.03
2019-06-20T18:20:41.989Z,3.90
2019-06-20T18:23:12.093Z,5.87
2019-06-20T18:25:42.214Z,3.70
2019-06-20T18:28:12.131Z,5.67
2019-06-20T18:30:46.341Z,7.73
2019-06-20T18:33:16.257Z,3.40
2019-06-20T18:35:47.356Z,4.13
2019-06-20T18:38:17.520Z,4.30
2019-06-20T18:40:48.047Z,4.00
2019-06-20T18:43:18.166Z,5.37
2019-06-20T18:45:49.623Z,3.43
2019-06-20T18:48:19.742Z,4.03
2019-06-20T18:50:50.954Z,3.20
2019-06-20T18:53:21.096Z,4.43
2019-06-20T18:55:51.119Z,3.53
2019-06-20T18:58:21.443Z,15.73
2019-06-20T19:00:51.562Z,3.90
2019-06-20T19:03:21.681Z,6.70
2019-06-20T19:05:51.813Z,4.10
2019-06-20T19:08:21.925Z,3.60
2019-06-20T19:10:52.269Z,5.43
2019-06-20T19:13:22.515Z,4.37
2019-06-20T19:15:52.687Z,3.33
2019-06-20T19:18:26.295Z,4.60
2019-06-20T19:20:56.418Z,3.63
2019-06-20T19:23:26.324Z,3.63
2019-06-20T19:25:56.447Z,4.13
2019-06-20T19:28:26.584Z,2.83
2019-06-20T19:30:57.505Z,5.73
2019-06-20T19:33:27.546Z,5.10
2019-06-20T19:35:57.544Z,3.20
2019-06-20T19:38:27.918Z,4.30
2019-06-20T19:40:58.251Z,3.37
2019-06-20T19:43:29.942Z,5.07
2019-06-20T19:46:00.058Z,3.90
2019-06-20T19:48:30.514Z,3.97
2019-06-20T19:51:01.116Z,3.53
2019-06-20T19:53:31.646Z,4.50
2019-06-20T19:56:01.768Z,8.57
2019-06-20T19:58:31.685Z,4.43
2019-06-20T20:01:02.622Z,4.83
2019-06-20T20:03:32.740Z,4.93
2019-06-20T20:06:04.440Z,6.20
2019-06-20T20:08:34.617Z,7.20
2019-06-20T20:11:04.534Z,3.30
2019-06-20T20:13:34.570Z,5.13
2019-06-20T20:16:04.768Z,4.33
2019-06-20T20:18:34.788Z,4.93
2019-06-20T20:21:04.827Z,3.20
2019-06-20T20:23:38.316Z,4.10
2019-06-20T20:26:08.948Z,3.73
2019-06-20T20:28:40.088Z,5.67
2019-06-20T20:31:10.197Z,3.67
2019-06-20T20:33:40.314Z,3.27
2019-06-20T20:36:24.047Z,6.90
2019-06-20T20:38:42.397Z,3.00
2019-06-20T20:41:12.837Z,3.53
2019-06-20T20:43:42.843Z,3.87
2019-06-20T20:46:12.963Z,3.90
2019-06-20T20:48:43.075Z,4.53
2019-06-20T20:51:13.193Z,4.40
2019-06-20T20:53:43.520Z,2.90
2019-06-20T20:56:13.639Z,3.37
2019-06-20T20:58:43.759Z,3.17
2019-06-20T21:01:16.746Z,3.70
2019-06-20T21:03:46.765Z,3.10
2019-06-20T21:06:16.987Z,2.67
2019-06-20T21:08:47.102Z,3.57
2019-06-20T21:11:17.231Z,3.80
2019-06-20T21:13:47.342Z,3.17
2019-06-20T21:16:17.461Z,4.50
2019-06-20T21:18:47.584Z,3.40
2019-06-20T21:21:17.701Z,2.77
2019-06-20T21:23:47.857Z,4.83
2019-06-20T21:26:18.045Z,4.40
2019-06-20T21:28:48.268Z,4.90
2019-06-20T21:31:18.176Z,5.23
2019-06-20T21:33:48.297Z,2.30
2019-06-20T21:36:18.311Z,6.30
2019-06-20T21:38:48.328Z,4.00
2019-06-20T21:41:18.449Z,2.87
2019-06-20T21:43:48.566Z,7.47
2019-06-20T21:46:18.687Z,4.73
2019-06-20T21:48:48.808Z,7.70
2019-06-20T21:51:18.926Z,6.00
2019-06-20T21:53:49.047Z,7.20
2019-06-20T21:56:19.167Z,3.90
2019-06-20T21:58:49.285Z,4.37
2019-06-20T22:01:19.464Z,7.40
2019-06-20T22:03:49.571Z,10.50
2019-06-20T22:06:23.687Z,6.90
2019-06-20T22:08:51.609Z,4.60
2019-06-20T22:11:21.726Z,8.50
2019-06-20T22:13:51.843Z,6.63
2019-06-20T22:16:21.966Z,3.53
2019-06-20T22:18:52.084Z,4.77
2019-06-20T22:21:22.199Z,4.43
2019-06-20T22:23:52.321Z,5.50
2019-06-20T22:26:22.438Z,6.60
2019-06-20T22:28:52.352Z,3.70
2019-06-20T22:31:22.475Z,5.03
2019-06-20T22:33:52.390Z,4.00
2019-06-20T22:36:22.306Z,4.40
2019-06-20T22:38:52.424Z,5.40
2019-06-20T22:41:22.540Z,3.40
2019-06-20T22:43:52.573Z,6.53
2019-06-20T22:46:22.579Z,4.87
2019-06-20T22:48:52.697Z,3.03
2019-06-20T22:51:22.815Z,5.13
2019-06-20T22:53:52.932Z,2.80
2019-06-20T22:56:23.052Z,3.00
2019-06-20T22:58:52.973Z,3.93
2019-06-20T23:01:22.843Z,2.97
2019-06-20T23:03:52.807Z,5.07
2019-06-20T23:06:22.973Z,5.07
2019-06-20T23:08:53.032Z,4.60
2019-06-20T23:11:23.150Z,3.97
2019-06-20T23:13:53.069Z,6.53
2019-06-20T23:16:23.185Z,4.60
2019-06-20T23:18:53.109Z,2.40
2019-06-20T23:21:23.220Z,3.80
2019-06-20T23:23:53.341Z,2.97
2019-06-20T23:26:23.459Z,3.53
2019-06-20T23:29:11.809Z,2.70
2019-06-20T23:31:41.924Z,4.50
2019-06-20T23:34:11.838Z,2.63
2019-06-20T23:36:41.961Z,3.20
2019-06-20T23:39:12.077Z,3.53
2019-06-20T23:41:41.968Z,2.50
2019-06-20T23:44:12.112Z,2.90
2019-06-20T23:46:42.042Z,3.07
2019-06-20T23:49:12.147Z,3.10
2019-06-20T23:51:43.929Z,2.97
2019-06-20T23:54:14.029Z,6.23
2019-06-20T23:56:43.996Z,4.50
2019-06-20T23:59:14.266Z,3.07
